Slappy01's ATC Tracking Thread - [CLOSED] @ N/A

Status: In Comments
Frequencies: In Comments
Duration: In Comments

am now open at KSEA!

Closed at KSEA, thanks for everyone that came.

Opening at KSEA at 0100z

Closed. Someone has KSEA

METAR: N/A

Or not open, someone already has KSEA. Moving to KPDX

Closed at KPDX.

METAR:
KPDX 160053Z 12009KT 10SM -RA BKN025 OVC032 04/01 A2970 RMK AO2 SLP057 P0002 T00390011